sensor_id;sensor_type;location;lat;lon;timestamp;temperature;humidity
17632;DHT22;8934;51.194;17.150;2023-06-10T00:00:16;13.90;99.90
17632;DHT22;8934;51.194;17.150;2023-06-10T00:03:05;13.90;99.90
17632;DHT22;8934;51.194;17.150;2023-06-10T00:05:53;13.90;99.90
17632;DHT22;8934;51.194;17.150;2023-06-10T00:08:41;13.90;99.90
17632;DHT22;8934;51.194;17.150;2023-06-10T00:11:28;14.00;99.90
17632;DHT22;8934;51.194;17.150;2023-06-10T00:14:16;14.00;99.90
17632;DHT22;8934;51.194;17.150;2023-06-10T00:17:03;14.10;99.90
17632;DHT22;8934;51.194;17.150;2023-06-10T00:19:53;14.10;99.90
17632;DHT22;8934;51.194;17.150;2023-06-10T00:22:41;14.20;99.90
17632;DHT22;8934;51.194;17.150;2023-06-10T00:25:32;14.40;99.90
17632;DHT22;8934;51.194;17.150;2023-06-10T00:28:20;14.50;99.90
17632;DHT22;8934;51.194;17.150;2023-06-10T00:31:07;14.70;99.90
17632;DHT22;8934;51.194;17.150;2023-06-10T00:33:55;14.80;99.90
17632;DHT22;8934;51.194;17.150;2023-06-10T00:36:44;14.80;99.90
17632;DHT22;8934;51.194;17.150;2023-06-10T00:39:31;14.80;99.90
17632;DHT22;8934;51.194;17.150;2023-06-10T00:42:19;14.80;99.90
17632;DHT22;8934;51.194;17.150;2023-06-10T00:45:09;14.90;99.90
17632;DHT22;8934;51.194;17.150;2023-06-10T00:47:57;14.90;99.90
17632;DHT22;8934;51.194;17.150;2023-06-10T00:50:45;14.90;99.90
17632;DHT22;8934;51.194;17.150;2023-06-10T00:53:36;14.90;99.90
17632;DHT22;8934;51.194;17.150;2023-06-10T00:56:24;15.00;99.90
17632;DHT22;8934;51.194;17.150;2023-06-10T00:59:14;15.00;99.90
17632;DHT22;8934;51.194;17.150;2023-06-10T01:02:04;14.90;99.90
17632;DHT22;8934;51.194;17.150;2023-06-10T01:04:51;14.90;99.90
17632;DHT22;8934;51.194;17.150;2023-06-10T01:07:43;14.90;99.90
17632;DHT22;8934;51.194;17.150;2023-06-10T01:10:39;14.90;99.90
17632;DHT22;8934;51.194;17.150;2023-06-10T01:13:29;14.90;99.90
17632;DHT22;8934;51.194;17.150;2023-06-10T01:16:19;14.90;99.90
17632;DHT22;8934;51.194;17.150;2023-06-10T01:19:07;15.00;99.90
17632;DHT22;8934;51.194;17.150;2023-06-10T01:21:57;15.00;99.90
17632;DHT22;8934;51.194;17.150;2023-06-10T01:24:46;15.00;99.90
17632;DHT22;8934;51.194;17.150;2023-06-10T01:27:37;15.00;99.90
17632;DHT22;8934;51.194;17.150;2023-06-10T01:30:29;15.00;99.90
17632;DHT22;8934;51.194;17.150;2023-06-10T01:33:26;15.00;99.90
17632;DHT22;8934;51.194;17.150;2023-06-10T01:36:16;15.00;99.90
17632;DHT22;8934;51.194;17.150;2023-06-10T01:39:08;15.00;99.90
17632;DHT22;8934;51.194;17.150;2023-06-10T01:41:58;15.10;99.90
17632;DHT22;8934;51.194;17.150;2023-06-10T01:44:46;15.10;99.90
17632;DHT22;8934;51.194;17.150;2023-06-10T01:47:34;15.20;99.90
17632;DHT22;8934;51.194;17.150;2023-06-10T01:50:21;15.20;99.90
17632;DHT22;8934;51.194;17.150;2023-06-10T01:53:09;15.20;99.90
17632;DHT22;8934;51.194;17.150;2023-06-10T01:55:58;15.30;99.90
17632;DHT22;8934;51.194;17.150;2023-06-10T01:58:47;15.40;99.90
17632;DHT22;8934;51.194;17.150;2023-06-10T02:01:35;15.50;99.90
17632;DHT22;8934;51.194;17.150;2023-06-10T02:04:23;15.60;99.90
17632;DHT22;8934;51.194;17.150;2023-06-10T02:07:11;15.60;99.90
17632;DHT22;8934;51.194;17.150;2023-06-10T02:09:58;15.60;99.90
17632;DHT22;8934;51.194;17.150;2023-06-10T02:12:49;15.60;99.90
17632;DHT22;8934;51.194;17.150;2023-06-10T02:15:37;15.60;99.90
17632;DHT22;8934;51.194;17.150;2023-06-10T02:18:24;15.50;99.90
17632;DHT22;8934;51.194;17.150;2023-06-10T02:21:14;15.50;99.90
17632;DHT22;8934;51.194;17.150;2023-06-10T02:24:02;15.50;99.90
17632;DHT22;8934;51.194;17.150;2023-06-10T02:26:50;15.50;99.90
17632;DHT22;8934;51.194;17.150;2023-06-10T02:29:39;15.50;99.90
17632;DHT22;8934;51.194;17.150;2023-06-10T02:32:27;15.50;99.90
17632;DHT22;8934;51.194;17.150;2023-06-10T02:35:16;15.40;99.90
17632;DHT22;8934;51.194;17.150;2023-06-10T02:38:04;15.40;99.90
17632;DHT22;8934;51.194;17.150;2023-06-10T02:40:52;15.40;99.90
17632;DHT22;8934;51.194;17.150;2023-06-10T02:43:41;15.40;99.90
17632;DHT22;8934;51.194;17.150;2023-06-10T02:46:31;15.50;99.90
17632;DHT22;8934;51.194;17.150;2023-06-10T02:49:19;15.40;99.90
17632;DHT22;8934;51.194;17.150;2023-06-10T02:52:07;15.40;99.90
17632;DHT22;8934;51.194;17.150;2023-06-10T02:54:54;15.30;99.90
17632;DHT22;8934;51.194;17.150;2023-06-10T02:57:42;15.30;99.90
17632;DHT22;8934;51.194;17.150;2023-06-10T03:00:30;15.30;99.90
17632;DHT22;8934;51.194;17.150;2023-06-10T03:03:19;15.30;99.90
17632;DHT22;8934;51.194;17.150;2023-06-10T03:06:17;15.30;99.90
17632;DHT22;8934;51.194;17.150;2023-06-10T03:09:05;15.30;99.90
17632;DHT22;8934;51.194;17.150;2023-06-10T03:11:54;15.40;99.90
17632;DHT22;8934;51.194;17.150;2023-06-10T03:14:42;15.50;99.90
17632;DHT22;8934;51.194;17.150;2023-06-10T03:17:29;15.50;99.90
17632;DHT22;8934;51.194;17.150;2023-06-10T03:20:19;15.50;99.90
17632;DHT22;8934;51.194;17.150;2023-06-10T03:23:09;15.60;99.90
17632;DHT22;8934;51.194;17.150;2023-06-10T03:25:57;15.70;99.90
17632;DHT22;8934;51.194;17.150;2023-06-10T03:28:46;15.70;99.90
17632;DHT22;8934;51.194;17.150;2023-06-10T03:31:34;15.70;99.90
17632;DHT22;8934;51.194;17.150;2023-06-10T03:34:25;15.80;99.90
17632;DHT22;8934;51.194;17.150;2023-06-10T03:37:14;15.80;99.90
17632;DHT22;8934;51.194;17.150;2023-06-10T03:40:07;15.90;99.90
17632;DHT22;8934;51.194;17.150;2023-06-10T03:43:00;15.90;99.90
17632;DHT22;8934;51.194;17.150;2023-06-10T03:45:49;16.00;99.90
17632;DHT22;8934;51.194;17.150;2023-06-10T03:48:38;16.00;99.90
17632;DHT22;8934;51.194;17.150;2023-06-10T03:51:25;16.00;99.90
17632;DHT22;8934;51.194;17.150;2023-06-10T03:54:15;16.10;99.90
17632;DHT22;8934;51.194;17.150;2023-06-10T03:57:03;16.10;99.90
17632;DHT22;8934;51.194;17.150;2023-06-10T03:59:54;16.20;99.90
17632;DHT22;8934;51.194;17.150;2023-06-10T04:02:42;16.30;99.90
17632;DHT22;8934;51.194;17.150;2023-06-10T04:05:44;16.30;99.90
17632;DHT22;8934;51.194;17.150;2023-06-10T04:08:31;16.40;99.90
17632;DHT22;8934;51.194;17.150;2023-06-10T04:11:20;16.40;99.90
17632;DHT22;8934;51.194;17.150;2023-06-10T04:14:08;16.40;99.90
17632;DHT22;8934;51.194;17.150;2023-06-10T04:16:57;16.40;99.90
17632;DHT22;8934;51.194;17.150;2023-06-10T04:19:45;16.40;99.90
17632;DHT22;8934;51.194;17.150;2023-06-10T04:22:32;16.40;99.90
17632;DHT22;8934;51.194;17.150;2023-06-10T04:25:20;16.40;99.90
17632;DHT22;8934;51.194;17.150;2023-06-10T04:28:10;16.40;99.90
17632;DHT22;8934;51.194;17.150;2023-06-10T04:30:58;16.40;99.90
17632;DHT22;8934;51.194;17.150;2023-06-10T04:33:46;16.40;99.90
17632;DHT22;8934;51.194;17.150;2023-06-10T04:36:34;16.40;99.90
17632;DHT22;8934;51.194;17.150;2023-06-10T04:39:22;16.40;99.90
17632;DHT22;8934;51.194;17.150;2023-06-10T04:42:10;16.40;99.90
17632;DHT22;8934;51.194;17.150;2023-06-10T04:45:00;16.40;99.90
17632;DHT22;8934;51.194;17.150;2023-06-10T04:47:48;16.40;99.90
17632;DHT22;8934;51.194;17.150;2023-06-10T04:50:36;16.40;99.90
17632;DHT22;8934;51.194;17.150;2023-06-10T04:53:23;16.50;99.90
17632;DHT22;8934;51.194;17.150;2023-06-10T04:56:11;16.50;99.90
17632;DHT22;8934;51.194;17.150;2023-06-10T04:58:58;16.60;99.90
17632;DHT22;8934;51.194;17.150;2023-06-10T05:01:47;16.60;99.90
17632;DHT22;8934;51.194;17.150;2023-06-10T05:04:36;16.70;99.90
17632;DHT22;8934;51.194;17.150;2023-06-10T05:07:24;16.70;99.90
17632;DHT22;8934;51.194;17.150;2023-06-10T05:10:11;16.80;99.90
17632;DHT22;8934;51.194;17.150;2023-06-10T05:12:59;16.90;99.90
17632;DHT22;8934;51.194;17.150;2023-06-10T05:15:46;17.00;99.90
17632;DHT22;8934;51.194;17.150;2023-06-10T05:18:36;17.20;99.90
17632;DHT22;8934;51.194;17.150;2023-06-10T05:21:23;17.30;99.90
17632;DHT22;8934;51.194;17.150;2023-06-10T05:24:11;17.50;99.90
17632;DHT22;8934;51.194;17.150;2023-06-10T05:26:59;17.60;99.90
17632;DHT22;8934;51.194;17.150;2023-06-10T05:29:46;17.70;99.90
17632;DHT22;8934;51.194;17.150;2023-06-10T05:32:34;17.80;99.90
17632;DHT22;8934;51.194;17.150;2023-06-10T05:35:23;17.90;99.90
17632;DHT22;8934;51.194;17.150;2023-06-10T05:38:11;18.00;99.90
17632;DHT22;8934;51.194;17.150;2023-06-10T05:40:59;18.10;99.90
17632;DHT22;8934;51.194;17.150;2023-06-10T05:43:46;18.20;99.90
17632;DHT22;8934;51.194;17.150;2023-06-10T05:46:34;18.40;99.90
17632;DHT22;8934;51.194;17.150;2023-06-10T05:49:21;18.50;99.90
17632;DHT22;8934;51.194;17.150;2023-06-10T05:52:10;18.70;99.90
17632;DHT22;8934;51.194;17.150;2023-06-10T05:54:58;19.00;99.90
17632;DHT22;8934;51.194;17.150;2023-06-10T05:57:46;19.20;99.90
17632;DHT22;8934;51.194;17.150;2023-06-10T06:00:33;19.40;99.90
17632;DHT22;8934;51.194;17.150;2023-06-10T06:03:23;19.50;99.90
17632;DHT22;8934;51.194;17.150;2023-06-10T06:06:11;19.50;99.90
17632;DHT22;8934;51.194;17.150;2023-06-10T06:09:01;19.50;99.90
17632;DHT22;8934;51.194;17.150;2023-06-10T06:11:48;19.60;99.90
17632;DHT22;8934;51.194;17.150;2023-06-10T06:14:37;19.60;99.90
17632;DHT22;8934;51.194;17.150;2023-06-10T06:17:25;19.70;99.90
17632;DHT22;8934;51.194;17.150;2023-06-10T06:20:13;19.70;99.90
17632;DHT22;8934;51.194;17.150;2023-06-10T06:23:04;19.70;99.90
17632;DHT22;8934;51.194;17.150;2023-06-10T06:25:53;19.80;99.90
17632;DHT22;8934;51.194;17.150;2023-06-10T06:28:41;19.80;99.90
17632;DHT22;8934;51.194;17.150;2023-06-10T06:31:28;19.80;99.90
17632;DHT22;8934;51.194;17.150;2023-06-10T06:34:16;19.90;99.90
17632;DHT22;8934;51.194;17.150;2023-06-10T06:37:04;20.10;99.90
17632;DHT22;8934;51.194;17.150;2023-06-10T06:39:54;20.20;99.90
17632;DHT22;8934;51.194;17.150;2023-06-10T06:42:44;20.30;99.90
17632;DHT22;8934;51.194;17.150;2023-06-10T06:45:55;20.50;99.90
17632;DHT22;8934;51.194;17.150;2023-06-10T06:48:42;20.70;99.90
17632;DHT22;8934;51.194;17.150;2023-06-10T06:51:30;20.90;99.90
17632;DHT22;8934;51.194;17.150;2023-06-10T06:54:18;20.90;99.90
17632;DHT22;8934;51.194;17.150;2023-06-10T06:57:06;20.90;99.90
17632;DHT22;8934;51.194;17.150;2023-06-10T06:59:56;20.90;99.90
17632;DHT22;8934;51.194;17.150;2023-06-10T07:02:43;21.00;99.90
17632;DHT22;8934;51.194;17.150;2023-06-10T07:05:31;21.10;99.90
17632;DHT22;8934;51.194;17.150;2023-06-10T07:08:19;21.20;99.90
17632;DHT22;8934;51.194;17.150;2023-06-10T07:11:07;21.30;99.90
17632;DHT22;8934;51.194;17.150;2023-06-10T07:13:54;21.20;99.90
17632;DHT22;8934;51.194;17.150;2023-06-10T07:16:43;21.20;99.90
17632;DHT22;8934;51.194;17.150;2023-06-10T07:19:32;21.30;99.90
17632;DHT22;8934;51.194;17.150;2023-06-10T07:22:19;21.40;99.90
17632;DHT22;8934;51.194;17.150;2023-06-10T07:25:07;21.60;99.90
17632;DHT22;8934;51.194;17.150;2023-06-10T07:27:56;21.70;99.90
17632;DHT22;8934;51.194;17.150;2023-06-10T07:30:44;21.80;99.90
17632;DHT22;8934;51.194;17.150;2023-06-10T07:33:33;21.90;99.90
17632;DHT22;8934;51.194;17.150;2023-06-10T07:36:21;22.00;99.90
17632;DHT22;8934;51.194;17.150;2023-06-10T07:39:08;22.10;99.90
17632;DHT22;8934;51.194;17.150;2023-06-10T07:41:56;22.10;99.90
17632;DHT22;8934;51.194;17.150;2023-06-10T07:44:44;22.20;99.90
17632;DHT22;8934;51.194;17.150;2023-06-10T07:47:33;22.20;99.90
17632;DHT22;8934;51.194;17.150;2023-06-10T07:50:23;22.20;99.90
17632;DHT22;8934;51.194;17.150;2023-06-10T07:53:10;22.30;99.90
17632;DHT22;8934;51.194;17.150;2023-06-10T07:55:58;22.30;99.90
17632;DHT22;8934;51.194;17.150;2023-06-10T07:58:46;22.40;99.90
17632;DHT22;8934;51.194;17.150;2023-06-10T08:01:33;22.40;99.90
17632;DHT22;8934;51.194;17.150;2023-06-10T08:04:22;22.60;99.90
17632;DHT22;8934;51.194;17.150;2023-06-10T08:07:11;22.90;99.90
17632;DHT22;8934;51.194;17.150;2023-06-10T08:09:59;23.00;99.90
17632;DHT22;8934;51.194;17.150;2023-06-10T08:12:46;23.20;99.90
17632;DHT22;8934;51.194;17.150;2023-06-10T08:15:35;23.40;99.90
17632;DHT22;8934;51.194;17.150;2023-06-10T08:18:22;23.60;99.90
17632;DHT22;8934;51.194;17.150;2023-06-10T08:21:10;23.80;99.90
17632;DHT22;8934;51.194;17.150;2023-06-10T08:23:59;24.00;99.90
17632;DHT22;8934;51.194;17.150;2023-06-10T08:26:47;24.00;99.90
17632;DHT22;8934;51.194;17.150;2023-06-10T08:29:34;24.00;99.90
17632;DHT22;8934;51.194;17.150;2023-06-10T08:32:22;23.90;99.90
17632;DHT22;8934;51.194;17.150;2023-06-10T08:35:10;23.80;99.90
17632;DHT22;8934;51.194;17.150;2023-06-10T08:37:58;23.80;99.90
17632;DHT22;8934;51.194;17.150;2023-06-10T08:40:47;23.90;99.90
17632;DHT22;8934;51.194;17.150;2023-06-10T08:43:39;24.20;99.90
17632;DHT22;8934;51.194;17.150;2023-06-10T08:46:30;24.50;99.90
17632;DHT22;8934;51.194;17.150;2023-06-10T08:49:19;24.70;99.90
17632;DHT22;8934;51.194;17.150;2023-06-10T08:52:11;24.90;99.90
17632;DHT22;8934;51.194;17.150;2023-06-10T08:55:05;24.90;99.90
17632;DHT22;8934;51.194;17.150;2023-06-10T08:57:58;25.00;99.90
17632;DHT22;8934;51.194;17.150;2023-06-10T09:00:46;25.10;99.90
17632;DHT22;8934;51.194;17.150;2023-06-10T09:03:35;25.40;99.90
17632;DHT22;8934;51.194;17.150;2023-06-10T09:06:23;25.60;99.90
17632;DHT22;8934;51.194;17.150;2023-06-10T09:09:14;25.50;99.90
17632;DHT22;8934;51.194;17.150;2023-06-10T09:12:02;25.60;99.90
17632;DHT22;8934;51.194;17.150;2023-06-10T09:14:50;25.80;99.90
17632;DHT22;8934;51.194;17.150;2023-06-10T09:17:38;26.00;99.90
17632;DHT22;8934;51.194;17.150;2023-06-10T09:20:27;26.00;99.90
17632;DHT22;8934;51.194;17.150;2023-06-10T09:23:15;26.30;99.90
17632;DHT22;8934;51.194;17.150;2023-06-10T09:26:08;26.30;99.90
17632;DHT22;8934;51.194;17.150;2023-06-10T09:29:02;26.40;99.90
17632;DHT22;8934;51.194;17.150;2023-06-10T09:31:51;26.40;99.90
17632;DHT22;8934;51.194;17.150;2023-06-10T09:34:39;26.40;99.90
17632;DHT22;8934;51.194;17.150;2023-06-10T09:37:27;26.70;99.90
17632;DHT22;8934;51.194;17.150;2023-06-10T09:40:15;27.00;99.90
17632;DHT22;8934;51.194;17.150;2023-06-10T09:43:03;27.20;99.90
17632;DHT22;8934;51.194;17.150;2023-06-10T09:45:50;27.10;99.90
17632;DHT22;8934;51.194;17.150;2023-06-10T09:48:43;26.70;99.90
17632;DHT22;8934;51.194;17.150;2023-06-10T09:51:31;26.20;99.90
17632;DHT22;8934;51.194;17.150;2023-06-10T09:54:19;26.10;99.90
17632;DHT22;8934;51.194;17.150;2023-06-10T09:57:07;26.40;99.90
17632;DHT22;8934;51.194;17.150;2023-06-10T09:59:56;27.00;99.90
17632;DHT22;8934;51.194;17.150;2023-06-10T10:02:47;27.50;99.90
17632;DHT22;8934;51.194;17.150;2023-06-10T10:05:37;27.90;99.90
17632;DHT22;8934;51.194;17.150;2023-06-10T10:08:25;28.30;99.90
17632;DHT22;8934;51.194;17.150;2023-06-10T10:11:14;28.70;99.90
17632;DHT22;8934;51.194;17.150;2023-06-10T10:14:04;28.80;99.90
17632;DHT22;8934;51.194;17.150;2023-06-10T10:16:55;28.60;99.90
17632;DHT22;8934;51.194;17.150;2023-06-10T10:19:48;28.60;99.90
17632;DHT22;8934;51.194;17.150;2023-06-10T10:22:38;28.40;99.90
17632;DHT22;8934;51.194;17.150;2023-06-10T10:25:28;28.60;99.90
17632;DHT22;8934;51.194;17.150;2023-06-10T10:28:19;28.80;99.90
17632;DHT22;8934;51.194;17.150;2023-06-10T10:31:08;29.00;99.90
17632;DHT22;8934;51.194;17.150;2023-06-10T10:33:58;28.80;99.90
17632;DHT22;8934;51.194;17.150;2023-06-10T10:36:46;28.70;99.90
17632;DHT22;8934;51.194;17.150;2023-06-10T10:39:36;28.40;99.90
17632;DHT22;8934;51.194;17.150;2023-06-10T10:42:25;28.60;99.90
17632;DHT22;8934;51.194;17.150;2023-06-10T10:45:13;28.90;99.90
17632;DHT22;8934;51.194;17.150;2023-06-10T10:48:07;29.10;99.90
17632;DHT22;8934;51.194;17.150;2023-06-10T10:50:58;29.20;99.90
17632;DHT22;8934;51.194;17.150;2023-06-10T10:54:12;29.60;99.90
17632;DHT22;8934;51.194;17.150;2023-06-10T10:57:15;30.00;99.90
17632;DHT22;8934;51.194;17.150;2023-06-10T11:00:05;30.20;99.90
17632;DHT22;8934;51.194;17.150;2023-06-10T11:02:58;29.90;99.90
17632;DHT22;8934;51.194;17.150;2023-06-10T11:05:49;29.80;99.90
17632;DHT22;8934;51.194;17.150;2023-06-10T11:08:46;30.10;99.90
17632;DHT22;8934;51.194;17.150;2023-06-10T11:11:49;30.40;99.90
17632;DHT22;8934;51.194;17.150;2023-06-10T11:14:54;30.40;99.90
17632;DHT22;8934;51.194;17.150;2023-06-10T11:18:06;29.90;99.40
17632;DHT22;8934;51.194;17.150;2023-06-10T11:20:55;29.40;99.90
17632;DHT22;8934;51.194;17.150;2023-06-10T11:23:43;29.20;99.90
17632;DHT22;8934;51.194;17.150;2023-06-10T11:26:31;28.80;99.90
17632;DHT22;8934;51.194;17.150;2023-06-10T11:29:21;28.30;99.90
17632;DHT22;8934;51.194;17.150;2023-06-10T11:32:12;28.30;99.90
17632;DHT22;8934;51.194;17.150;2023-06-10T11:35:00;28.60;99.90
17632;DHT22;8934;51.194;17.150;2023-06-10T11:37:50;29.00;99.90
17632;DHT22;8934;51.194;17.150;2023-06-10T11:40:38;29.60;99.30
17632;DHT22;8934;51.194;17.150;2023-06-10T11:43:26;30.10;98.60
17632;DHT22;8934;51.194;17.150;2023-06-10T11:46:14;30.70;99.00
17632;DHT22;8934;51.194;17.150;2023-06-10T11:49:04;31.30;97.00
17632;DHT22;8934;51.194;17.150;2023-06-10T11:51:52;31.60;94.60
17632;DHT22;8934;51.194;17.150;2023-06-10T11:54:40;31.90;95.10
17632;DHT22;8934;51.194;17.150;2023-06-10T11:57:28;32.10;92.60
17632;DHT22;8934;51.194;17.150;2023-06-10T12:00:16;32.20;93.80
17632;DHT22;8934;51.194;17.150;2023-06-10T12:03:03;32.00;92.20
17632;DHT22;8934;51.194;17.150;2023-06-10T12:05:57;32.10;92.50
17632;DHT22;8934;51.194;17.150;2023-06-10T12:08:45;32.30;91.40
17632;DHT22;8934;51.194;17.150;2023-06-10T12:11:33;32.60;91.40
17632;DHT22;8934;51.194;17.150;2023-06-10T12:14:53;32.90;90.80
17632;DHT22;8934;51.194;17.150;2023-06-10T12:17:43;32.20;89.90
17632;DHT22;8934;51.194;17.150;2023-06-10T12:20:32;31.30;91.30
17632;DHT22;8934;51.194;17.150;2023-06-10T12:23:21;30.60;92.60
17632;DHT22;8934;51.194;17.150;2023-06-10T12:26:09;30.60;91.70
17632;DHT22;8934;51.194;17.150;2023-06-10T12:28:57;30.70;92.10
17632;DHT22;8934;51.194;17.150;2023-06-10T12:31:58;30.80;91.70
17632;DHT22;8934;51.194;17.150;2023-06-10T12:34:46;31.30;95.20
17632;DHT22;8934;51.194;17.150;2023-06-10T12:37:34;31.40;89.20
17632;DHT22;8934;51.194;17.150;2023-06-10T12:40:31;30.80;90.90
17632;DHT22;8934;51.194;17.150;2023-06-10T12:43:20;30.40;92.20
17632;DHT22;8934;51.194;17.150;2023-06-10T12:46:10;30.60;93.20
17632;DHT22;8934;51.194;17.150;2023-06-10T12:48:59;30.90;91.90
17632;DHT22;8934;51.194;17.150;2023-06-10T12:51:47;31.20;92.50
17632;DHT22;8934;51.194;17.150;2023-06-10T12:54:35;31.50;92.30
17632;DHT22;8934;51.194;17.150;2023-06-10T12:57:24;31.80;90.20
17632;DHT22;8934;51.194;17.150;2023-06-10T13:00:13;31.70;91.40
17632;DHT22;8934;51.194;17.150;2023-06-10T13:03:02;31.60;90.10
17632;DHT22;8934;51.194;17.150;2023-06-10T13:05:52;31.50;90.30
17632;DHT22;8934;51.194;17.150;2023-06-10T13:08:39;31.60;85.90
17632;DHT22;8934;51.194;17.150;2023-06-10T13:11:27;31.40;89.20
17632;DHT22;8934;51.194;17.150;2023-06-10T13:14:16;31.50;83.70
17632;DHT22;8934;51.194;17.150;2023-06-10T13:17:04;31.20;84.00
17632;DHT22;8934;51.194;17.150;2023-06-10T13:19:53;31.30;84.20
17632;DHT22;8934;51.194;17.150;2023-06-10T13:22:41;31.40;84.80
17632;DHT22;8934;51.194;17.150;2023-06-10T13:25:29;31.20;79.50
17632;DHT22;8934;51.194;17.150;2023-06-10T13:28:16;30.90;82.40
17632;DHT22;8934;51.194;17.150;2023-06-10T13:31:05;30.80;88.10
17632;DHT22;8934;51.194;17.150;2023-06-10T13:33:53;30.80;81.90
17632;DHT22;8934;51.194;17.150;2023-06-10T13:36:41;30.70;81.60
17632;DHT22;8934;51.194;17.150;2023-06-10T13:39:28;30.60;83.30
17632;DHT22;8934;51.194;17.150;2023-06-10T13:42:16;30.50;84.20
17632;DHT22;8934;51.194;17.150;2023-06-10T13:45:04;30.80;85.60
17632;DHT22;8934;51.194;17.150;2023-06-10T13:47:54;30.80;82.10
17632;DHT22;8934;51.194;17.150;2023-06-10T13:50:42;31.10;81.30
17632;DHT22;8934;51.194;17.150;2023-06-10T13:53:31;31.30;81.70
17632;DHT22;8934;51.194;17.150;2023-06-10T13:56:20;31.30;80.10
17632;DHT22;8934;51.194;17.150;2023-06-10T13:59:08;31.40;78.20
17632;DHT22;8934;51.194;17.150;2023-06-10T14:01:55;31.20;78.80
17632;DHT22;8934;51.194;17.150;2023-06-10T14:04:45;31.30;82.70
17632;DHT22;8934;51.194;17.150;2023-06-10T14:07:33;31.50;79.00
17632;DHT22;8934;51.194;17.150;2023-06-10T14:10:22;31.70;75.30
17632;DHT22;8934;51.194;17.150;2023-06-10T14:13:10;31.50;74.50
17632;DHT22;8934;51.194;17.150;2023-06-10T14:15:57;31.10;72.80
17632;DHT22;8934;51.194;17.150;2023-06-10T14:18:48;30.80;73.60
17632;DHT22;8934;51.194;17.150;2023-06-10T14:21:38;30.50;78.30
17632;DHT22;8934;51.194;17.150;2023-06-10T14:24:27;30.30;73.70
17632;DHT22;8934;51.194;17.150;2023-06-10T14:27:15;30.10;75.30
17632;DHT22;8934;51.194;17.150;2023-06-10T14:30:03;30.20;79.40
17632;DHT22;8934;51.194;17.150;2023-06-10T14:32:51;30.70;76.90
17632;DHT22;8934;51.194;17.150;2023-06-10T14:35:39;30.60;74.10
17632;DHT22;8934;51.194;17.150;2023-06-10T14:38:28;30.60;76.60
17632;DHT22;8934;51.194;17.150;2023-06-10T14:41:16;31.10;76.80
17632;DHT22;8934;51.194;17.150;2023-06-10T14:44:04;31.20;73.30
17632;DHT22;8934;51.194;17.150;2023-06-10T14:46:51;31.20;72.00
17632;DHT22;8934;51.194;17.150;2023-06-10T14:49:39;31.20;72.70
17632;DHT22;8934;51.194;17.150;2023-06-10T14:52:28;31.20;75.10
17632;DHT22;8934;51.194;17.150;2023-06-10T14:55:18;31.40;79.30
17632;DHT22;8934;51.194;17.150;2023-06-10T14:58:06;31.70;76.70
17632;DHT22;8934;51.194;17.150;2023-06-10T15:00:54;32.10;75.20
17632;DHT22;8934;51.194;17.150;2023-06-10T15:03:41;32.50;71.30
17632;DHT22;8934;51.194;17.150;2023-06-10T15:06:29;32.70;71.10
17632;DHT22;8934;51.194;17.150;2023-06-10T15:09:16;32.90;69.00
17632;DHT22;8934;51.194;17.150;2023-06-10T15:12:06;32.90;71.20
17632;DHT22;8934;51.194;17.150;2023-06-10T15:14:54;33.20;68.70
17632;DHT22;8934;51.194;17.150;2023-06-10T15:17:41;33.30;68.70
17632;DHT22;8934;51.194;17.150;2023-06-10T15:20:29;32.90;69.40
17632;DHT22;8934;51.194;17.150;2023-06-10T15:23:17;32.40;68.30
17632;DHT22;8934;51.194;17.150;2023-06-10T15:26:05;31.80;69.60
17632;DHT22;8934;51.194;17.150;2023-06-10T15:28:54;31.60;68.90
17632;DHT22;8934;51.194;17.150;2023-06-10T15:31:42;31.50;70.40
17632;DHT22;8934;51.194;17.150;2023-06-10T15:34:29;31.70;66.40
17632;DHT22;8934;51.194;17.150;2023-06-10T15:37:17;31.70;65.50
17632;DHT22;8934;51.194;17.150;2023-06-10T15:40:06;31.80;68.70
17632;DHT22;8934;51.194;17.150;2023-06-10T15:42:54;32.10;69.30
17632;DHT22;8934;51.194;17.150;2023-06-10T15:45:42;32.40;64.80
17632;DHT22;8934;51.194;17.150;2023-06-10T15:48:30;32.50;65.10
17632;DHT22;8934;51.194;17.150;2023-06-10T15:51:18;32.60;64.70
17632;DHT22;8934;51.194;17.150;2023-06-10T15:54:05;32.60;64.80
17632;DHT22;8934;51.194;17.150;2023-06-10T15:56:53;32.40;63.50
17632;DHT22;8934;51.194;17.150;2023-06-10T15:59:40;32.30;64.90
17632;DHT22;8934;51.194;17.150;2023-06-10T16:02:29;32.40;65.70
17632;DHT22;8934;51.194;17.150;2023-06-10T16:05:22;32.70;63.40
17632;DHT22;8934;51.194;17.150;2023-06-10T16:08:09;32.90;62.80
17632;DHT22;8934;51.194;17.150;2023-06-10T16:10:57;32.60;63.90
17632;DHT22;8934;51.194;17.150;2023-06-10T16:13:44;32.50;65.50
17632;DHT22;8934;51.194;17.150;2023-06-10T16:16:32;32.70;68.20
17632;DHT22;8934;51.194;17.150;2023-06-10T16:19:21;33.30;63.00
17632;DHT22;8934;51.194;17.150;2023-06-10T16:22:08;32.80;61.90
17632;DHT22;8934;51.194;17.150;2023-06-10T16:24:56;32.40;67.40
17632;DHT22;8934;51.194;17.150;2023-06-10T16:27:44;32.30;66.70
17632;DHT22;8934;51.194;17.150;2023-06-10T16:30:31;32.10;66.00
17632;DHT22;8934;51.194;17.150;2023-06-10T16:33:19;31.20;68.60
17632;DHT22;8934;51.194;17.150;2023-06-10T16:36:08;30.30;71.70
17632;DHT22;8934;51.194;17.150;2023-06-10T16:38:56;29.90;73.90
17632;DHT22;8934;51.194;17.150;2023-06-10T16:41:44;30.20;72.80
17632;DHT22;8934;51.194;17.150;2023-06-10T16:44:31;30.60;73.90
17632;DHT22;8934;51.194;17.150;2023-06-10T16:47:19;30.80;70.90
17632;DHT22;8934;51.194;17.150;2023-06-10T16:50:08;30.90;70.40
17632;DHT22;8934;51.194;17.150;2023-06-10T16:52:57;31.00;70.20
17632;DHT22;8934;51.194;17.150;2023-06-10T16:55:45;31.30;72.10
17632;DHT22;8934;51.194;17.150;2023-06-10T16:58:33;31.60;72.40
17632;DHT22;8934;51.194;17.150;2023-06-10T17:01:21;31.90;71.30
17632;DHT22;8934;51.194;17.150;2023-06-10T17:04:08;32.10;69.70
17632;DHT22;8934;51.194;17.150;2023-06-10T17:06:56;32.20;69.40
17632;DHT22;8934;51.194;17.150;2023-06-10T17:09:45;32.00;67.60
17632;DHT22;8934;51.194;17.150;2023-06-10T17:12:33;31.70;66.60
17632;DHT22;8934;51.194;17.150;2023-06-10T17:15:21;31.40;68.70
17632;DHT22;8934;51.194;17.150;2023-06-10T17:18:08;31.20;67.70
17632;DHT22;8934;51.194;17.150;2023-06-10T17:20:56;30.80;67.30
17632;DHT22;8934;51.194;17.150;2023-06-10T17:23:43;30.70;67.60
17632;DHT22;8934;51.194;17.150;2023-06-10T17:26:32;30.30;69.00
17632;DHT22;8934;51.194;17.150;2023-06-10T17:29:20;30.30;72.70
17632;DHT22;8934;51.194;17.150;2023-06-10T17:32:08;30.40;72.80
17632;DHT22;8934;51.194;17.150;2023-06-10T17:34:56;30.40;72.10
17632;DHT22;8934;51.194;17.150;2023-06-10T17:37:43;30.50;71.40
17632;DHT22;8934;51.194;17.150;2023-06-10T17:40:31;30.60;73.30
17632;DHT22;8934;51.194;17.150;2023-06-10T17:43:20;30.60;71.50
17632;DHT22;8934;51.194;17.150;2023-06-10T17:46:07;30.50;72.20